createdAt,value
2022-12-28T00:02:45.094Z,157.26
2022-12-28T00:05:51.943Z,170.52
2022-12-28T00:09:01.121Z,170.81
2022-12-28T00:12:09.171Z,187.70
2022-12-28T00:15:15.278Z,222.97
2022-12-28T00:18:22.110Z,246.41
2022-12-28T00:21:29.262Z,260.46
2022-12-28T00:24:38.788Z,208.45
2022-12-28T00:27:44.842Z,210.05
2022-12-28T00:30:51.834Z,202.42
2022-12-28T00:33:58.147Z,201.81
2022-12-28T00:37:08.571Z,179.05
2022-12-28T00:40:23.915Z,163.18
2022-12-28T00:43:31.195Z,148.16
2022-12-28T00:46:38.720Z,141.01
2022-12-28T00:49:45.668Z,133.31
2022-12-28T00:52:51.769Z,131.37
2022-12-28T00:56:09.232Z,126.02
2022-12-28T00:59:15.801Z,122.79
2022-12-28T01:02:22.836Z,117.61
2022-12-28T01:05:29.516Z,123.85
2022-12-28T01:08:36.643Z,131.28
2022-12-28T01:11:45.534Z,133.55
2022-12-28T01:14:52.454Z,138.17
2022-12-28T01:17:58.470Z,147.62
2022-12-28T01:21:13.565Z,145.09
2022-12-28T01:24:22.115Z,145.01
2022-12-28T01:27:31.513Z,142.79
2022-12-28T01:30:38.973Z,141.27
2022-12-28T01:33:47.351Z,139.82
2022-12-28T01:36:54.212Z,138.32
2022-12-28T01:40:01.211Z,141.01
2022-12-28T01:43:29.853Z,146.50
2022-12-28T01:46:45.767Z,140.95
2022-12-28T01:50:06.862Z,147.91
2022-12-28T01:53:14.726Z,142.91
2022-12-28T01:56:21.833Z,141.55
2022-12-28T01:59:39.498Z,147.50
2022-12-28T02:02:55.785Z,143.93
2022-12-28T02:06:09.574Z,151.57
2022-12-28T02:09:27.140Z,149.76
2022-12-28T02:12:36.297Z,151.83
2022-12-28T02:15:49.903Z,151.34
2022-12-28T02:18:59.345Z,152.98
2022-12-28T02:22:46.616Z,150.08
2022-12-28T02:26:38.812Z,136.73
2022-12-28T02:30:10.486Z,136.32
2022-12-28T02:33:30.336Z,132.43
2022-12-28T02:36:53.088Z,136.43
2022-12-28T02:40:09.982Z,143.73
2022-12-28T02:43:18.297Z,145.43
2022-12-28T02:46:45.623Z,151.38
2022-12-28T02:50:04.853Z,152.67
2022-12-28T02:53:51.599Z,145.59
2022-12-28T02:57:13.921Z,151.51
2022-12-28T03:00:24.709Z,150.98
2022-12-28T03:03:55.723Z,155.22
2022-12-28T03:07:28.635Z,144.21
2022-12-28T03:10:49.135Z,145.58
2022-12-28T03:14:06.275Z,143.96
2022-12-28T03:17:28.843Z,147.62
2022-12-28T03:20:49.949Z,143.88
2022-12-28T03:24:13.255Z,144.36
2022-12-28T03:27:38.289Z,144.53
2022-12-28T03:31:07.340Z,138.97
2022-12-28T03:34:18.477Z,132.08
2022-12-28T03:37:41.995Z,124.03
2022-12-28T03:40:57.698Z,115.70
2022-12-28T03:44:13.238Z,107.76
2022-12-28T03:47:27.044Z,103.42
2022-12-28T03:50:39.890Z,98.18
2022-12-28T03:53:51.346Z,95.85
2022-12-28T03:57:01.166Z,94.04
2022-12-28T04:00:14.176Z,89.96
2022-12-28T04:03:23.717Z,89.48
2022-12-28T04:06:30.072Z,82.67
2022-12-28T04:09:40.264Z,78.01
2022-12-28T04:12:50.394Z,79.82
2022-12-28T04:16:14.107Z,83.07
2022-12-28T04:19:21.853Z,80.50
2022-12-28T04:22:29.014Z,81.33
2022-12-28T04:25:40.086Z,83.01
2022-12-28T04:28:48.494Z,83.69
2022-12-28T04:32:03.506Z,89.98
2022-12-28T04:35:11.287Z,91.67
2022-12-28T04:38:26.934Z,87.10
2022-12-28T04:41:36.423Z,83.93
2022-12-28T04:44:42.528Z,82.37
2022-12-28T04:47:49.468Z,91.91
2022-12-28T04:50:56.792Z,103.77
2022-12-28T04:54:03.891Z,128.53
2022-12-28T04:57:12.553Z,98.15
2022-12-28T05:00:19.713Z,80.54
2022-12-28T05:03:25.735Z,72.85
2022-12-28T05:06:32.654Z,72.18
2022-12-28T05:09:38.761Z,73.27
2022-12-28T05:12:48.291Z,76.38
2022-12-28T05:15:54.404Z,73.51
2022-12-28T05:19:01.850Z,87.06
2022-12-28T05:22:12.010Z,92.72
2022-12-28T05:25:19.077Z,91.96
2022-12-28T05:28:29.216Z,100.52
2022-12-28T05:31:36.156Z,123.14
2022-12-28T05:34:42.326Z,159.34
2022-12-28T05:37:49.178Z,166.79
2022-12-28T05:40:55.147Z,147.06
2022-12-28T05:44:04.618Z,131.77
2022-12-28T05:47:10.859Z,127.13
2022-12-28T05:50:18.068Z,134.31
2022-12-28T05:53:24.099Z,132.44
2022-12-28T05:56:33.224Z,129.90
2022-12-28T05:59:41.868Z,137.52
2022-12-28T06:02:48.806Z,147.38
2022-12-28T06:05:54.909Z,136.69
2022-12-28T06:09:02.066Z,118.21
2022-12-28T06:12:08.957Z,131.12
2022-12-28T06:15:18.598Z,127.86
2022-12-28T06:18:24.838Z,113.16
2022-12-28T06:21:34.415Z,109.90
2022-12-28T06:24:40.503Z,111.13
2022-12-28T06:27:47.420Z,106.77
2022-12-28T06:30:56.036Z,107.83
2022-12-28T06:34:05.574Z,102.85
2022-12-28T06:37:12.400Z,97.79
2022-12-28T06:40:21.912Z,97.54
2022-12-28T06:43:36.069Z,96.55
2022-12-28T06:46:45.658Z,95.08
2022-12-28T06:49:51.687Z,102.89
2022-12-28T06:52:58.653Z,99.56
2022-12-28T06:56:08.539Z,98.13
2022-12-28T06:59:15.396Z,99.28
2022-12-28T07:02:24.133Z,98.94
2022-12-28T07:05:31.062Z,101.75
2022-12-28T07:08:37.807Z,98.57
2022-12-28T07:11:45.624Z,107.64
2022-12-28T07:14:51.606Z,112.54
2022-12-28T07:18:02.143Z,117.43
2022-12-28T07:21:13.603Z,118.14
2022-12-28T07:24:20.414Z,108.83
2022-12-28T07:27:26.470Z,110.79
2022-12-28T07:30:33.327Z,127.84
2022-12-28T07:33:43.367Z,114.51
2022-12-28T07:36:52.108Z,121.17
2022-12-28T07:39:58.123Z,148.60
2022-12-28T07:43:04.950Z,120.50
2022-12-28T07:46:15.024Z,107.82
2022-12-28T07:49:24.552Z,105.36
2022-12-28T07:52:30.567Z,112.28
2022-12-28T07:55:37.551Z,99.75
2022-12-28T08:01:54.672Z,115.55
2022-12-28T08:05:03.537Z,127.28
2022-12-28T08:08:12.877Z,114.97
2022-12-28T08:11:22.297Z,114.52
2022-12-28T08:14:29.346Z,109.37
2022-12-28T08:17:35.505Z,115.10
2022-12-28T08:20:45.067Z,115.31
2022-12-28T08:23:52.622Z,112.75
2022-12-28T08:26:59.525Z,108.68
2022-12-28T08:30:05.616Z,105.63
2022-12-28T08:33:12.543Z,105.95
2022-12-28T08:36:21.282Z,106.36
2022-12-28T08:39:28.155Z,105.01
2022-12-28T08:42:34.347Z,99.23
2022-12-28T08:45:41.272Z,96.33
2022-12-28T08:48:49.385Z,99.23
2022-12-28T08:51:59.049Z,91.64
2022-12-28T08:55:05.105Z,86.00
2022-12-28T08:58:11.997Z,86.41
2022-12-28T09:01:21.275Z,87.02
2022-12-28T09:04:28.222Z,93.57
2022-12-28T09:07:36.848Z,90.33
2022-12-28T09:10:43.686Z,94.01
2022-12-28T09:13:50.205Z,93.69
2022-12-28T09:16:57.729Z,97.47
2022-12-28T09:20:03.835Z,94.95
2022-12-28T09:23:13.552Z,98.64
2022-12-28T09:26:23.291Z,97.70
2022-12-28T09:29:30.179Z,89.41
2022-12-28T09:32:36.250Z,93.35
2022-12-28T09:35:43.087Z,87.34
2022-12-28T09:38:53.390Z,95.56
2022-12-28T09:42:06.155Z,106.11
2022-12-28T09:45:16.266Z,99.52
2022-12-28T09:48:28.035Z,95.51
2022-12-28T09:51:44.667Z,94.16
2022-12-28T09:54:54.300Z,93.39
2022-12-28T09:58:03.529Z,99.28
2022-12-28T10:01:19.660Z,111.95
2022-12-28T10:04:26.991Z,109.43
2022-12-28T10:07:34.741Z,95.61
2022-12-28T10:10:49.149Z,100.66
2022-12-28T10:14:01.492Z,107.46
2022-12-28T10:17:09.761Z,95.85
2022-12-28T10:20:23.405Z,101.48
2022-12-28T10:23:41.235Z,106.86
2022-12-28T10:27:04.099Z,102.20
2022-12-28T10:30:24.178Z,111.34
2022-12-28T10:33:31.374Z,111.49
2022-12-28T10:36:37.673Z,113.55
2022-12-28T10:39:54.848Z,123.10
2022-12-28T10:43:10.166Z,109.78
2022-12-28T10:46:22.968Z,133.45
2022-12-28T10:49:34.802Z,127.22
2022-12-28T10:52:42.398Z,166.79
2022-12-28T10:55:49.084Z,191.10
2022-12-28T10:59:28.090Z,193.39
2022-12-28T11:02:35.960Z,190.39
2022-12-28T11:05:42.936Z,140.23
2022-12-28T11:09:17.779Z,137.31
2022-12-28T11:12:32.118Z,119.96
2022-12-28T11:15:44.392Z,105.70
2022-12-28T11:18:51.687Z,95.21
2022-12-28T11:21:57.912Z,94.21
2022-12-28T11:25:08.645Z,82.88
2022-12-28T11:28:20.130Z,90.14
2022-12-28T11:31:40.999Z,82.79
2022-12-28T11:34:48.756Z,78.41
2022-12-28T11:38:00.018Z,76.01
2022-12-28T11:41:06.268Z,92.97
2022-12-28T11:44:46.269Z,107.15
2022-12-28T11:47:54.983Z,121.59
2022-12-28T11:51:08.121Z,82.72
2022-12-28T11:54:42.871Z,87.54
2022-12-28T11:57:50.023Z,90.61
2022-12-28T12:00:57.008Z,65.60
2022-12-28T12:04:43.552Z,65.21
2022-12-28T12:07:51.580Z,103.19
2022-12-28T12:11:33.598Z,80.55
2022-12-28T12:14:47.200Z,59.72
2022-12-28T12:18:05.037Z,62.99
2022-12-28T12:21:33.211Z,72.61
2022-12-28T12:24:54.656Z,62.83
2022-12-28T12:28:09.883Z,74.56
2022-12-28T12:31:27.339Z,96.41
2022-12-28T12:34:47.809Z,105.66
2022-12-28T12:38:02.781Z,90.73
2022-12-28T12:41:32.251Z,116.52
2022-12-28T12:44:55.512Z,84.17
2022-12-28T12:48:30.850Z,90.46
2022-12-28T12:51:53.781Z,118.66
2022-12-28T12:55:23.123Z,84.94
2022-12-28T12:58:44.763Z,83.12
2022-12-28T13:02:11.860Z,72.16
2022-12-28T13:05:25.492Z,78.08
2022-12-28T13:08:43.790Z,93.15
2022-12-28T13:11:54.313Z,93.27
2022-12-28T13:15:10.801Z,116.80
2022-12-28T13:21:52.273Z,103.41
2022-12-28T13:24:59.479Z,108.54
2022-12-28T13:28:09.330Z,112.76
2022-12-28T13:31:24.691Z,110.04
2022-12-28T13:34:33.904Z,115.65
2022-12-28T13:37:40.912Z,86.42
2022-12-28T13:40:56.478Z,111.49
2022-12-28T13:44:42.898Z,143.84
2022-12-28T13:47:55.878Z,119.48
2022-12-28T13:51:03.089Z,116.67
2022-12-28T13:54:13.568Z,100.75
2022-12-28T14:00:58.416Z,96.85
2022-12-28T14:04:51.248Z,97.97
2022-12-28T14:07:40.881Z,103.89
2022-12-28T14:10:51.457Z,102.12
2022-12-28T14:14:00.745Z,104.98
2022-12-28T14:17:12.535Z,102.20
2022-12-28T14:20:19.640Z,97.62
2022-12-28T14:23:29.740Z,93.10
2022-12-28T14:26:38.269Z,107.18
2022-12-28T14:30:00.738Z,129.68
2022-12-28T14:33:28.596Z,129.37
2022-12-28T14:36:55.477Z,134.37
2022-12-28T14:40:31.422Z,133.67
2022-12-28T14:43:58.675Z,139.55
2022-12-28T14:47:06.419Z,192.04
2022-12-28T14:50:27.211Z,204.88
2022-12-28T14:53:35.017Z,206.02
2022-12-28T14:56:43.275Z,138.35
2022-12-28T15:00:02.300Z,156.37
2022-12-28T15:03:22.133Z,159.61
2022-12-28T15:06:35.001Z,176.04
2022-12-28T15:09:41.942Z,181.63
2022-12-28T15:12:48.848Z,190.67
2022-12-28T15:16:01.559Z,200.92
2022-12-28T15:19:08.846Z,190.37
2022-12-28T15:22:17.783Z,202.24
2022-12-28T15:25:25.533Z,215.53
2022-12-28T15:28:31.667Z,203.67
2022-12-28T15:31:38.612Z,192.95
2022-12-28T15:34:44.886Z,188.10
2022-12-28T15:37:54.540Z,197.69
2022-12-28T15:41:01.141Z,213.67
2022-12-28T15:44:09.358Z,226.97
2022-12-28T15:47:15.532Z,236.62
2022-12-28T15:50:22.437Z,204.47
2022-12-28T15:53:31.118Z,203.93
2022-12-28T15:56:41.507Z,198.37
2022-12-28T15:59:47.646Z,205.76
2022-12-28T16:02:55.707Z,190.58
2022-12-28T16:06:04.125Z,169.93
2022-12-28T16:09:15.567Z,150.90
2022-12-28T16:12:21.664Z,140.42
2022-12-28T16:15:28.668Z,144.61
2022-12-28T16:18:34.866Z,126.21
2022-12-28T16:21:41.835Z,128.24
2022-12-28T16:24:51.190Z,135.74
2022-12-28T16:27:58.107Z,140.65
2022-12-28T16:31:05.485Z,145.99
2022-12-28T16:34:16.722Z,165.80
2022-12-28T16:37:22.790Z,155.31
2022-12-28T16:40:32.367Z,141.12
2022-12-28T16:43:38.485Z,148.41
2022-12-28T16:46:45.683Z,155.84
2022-12-28T16:49:51.780Z,175.13
2022-12-28T16:53:01.074Z,181.59
2022-12-28T16:56:10.715Z,188.19
2022-12-28T16:59:20.722Z,199.32
2022-12-28T17:02:27.076Z,193.51
2022-12-28T17:05:37.002Z,172.21
2022-12-28T17:08:43.211Z,152.88
2022-12-28T17:11:54.225Z,181.40
2022-12-28T17:15:04.788Z,189.62
2022-12-28T17:18:12.903Z,188.93
2022-12-28T17:21:19.001Z,194.21
2022-12-28T17:24:26.224Z,185.63
2022-12-28T17:27:35.051Z,178.04
2022-12-28T17:30:41.936Z,165.12
2022-12-28T17:33:48.857Z,169.18
2022-12-28T17:36:55.833Z,185.35
2022-12-28T17:40:01.975Z,185.60
2022-12-28T17:43:11.628Z,194.57
2022-12-28T17:46:18.417Z,195.93
2022-12-28T17:49:25.452Z,184.91
2022-12-28T17:52:31.883Z,184.94
2022-12-28T17:55:40.226Z,203.12
2022-12-28T17:58:49.756Z,212.26
2022-12-28T18:01:57.089Z,252.99
2022-12-28T18:05:03.395Z,266.17
2022-12-28T18:08:10.384Z,251.69
2022-12-28T18:11:16.542Z,258.20
2022-12-28T18:14:26.257Z,267.96
2022-12-28T18:17:32.558Z,267.53
2022-12-28T18:20:40.084Z,298.48
2022-12-28T18:23:48.932Z,337.77
2022-12-28T18:26:55.821Z,275.68
2022-12-28T18:30:04.518Z,235.67
2022-12-28T18:33:11.436Z,231.96
2022-12-28T18:36:18.699Z,210.66
2022-12-28T18:39:25.764Z,194.52
2022-12-28T18:42:31.978Z,181.15
2022-12-28T18:45:41.513Z,162.71
2022-12-28T18:48:47.659Z,149.73
2022-12-28T18:51:54.584Z,138.88
2022-12-28T18:55:00.781Z,149.95
2022-12-28T18:58:07.797Z,150.13
2022-12-28T19:01:55.941Z,136.49
2022-12-28T19:04:48.312Z,140.13
2022-12-28T19:07:54.521Z,140.18
2022-12-28T19:11:01.642Z,144.51
2022-12-28T19:14:08.897Z,142.87
2022-12-28T19:17:18.419Z,138.61
2022-12-28T19:20:24.817Z,138.66
2022-12-28T19:23:31.815Z,132.82
2022-12-28T19:26:39.569Z,140.57
2022-12-28T19:29:46.512Z,132.77
2022-12-28T19:32:55.467Z,121.58
2022-12-28T19:36:02.385Z,141.45
2022-12-28T19:39:09.059Z,145.81
2022-12-28T19:42:16.104Z,125.97
2022-12-28T19:45:22.254Z,115.57
2022-12-28T19:48:31.793Z,117.05
2022-12-28T19:51:37.902Z,118.57
2022-12-28T19:54:45.621Z,123.44
2022-12-28T19:57:51.650Z,118.59
2022-12-28T20:00:58.677Z,113.77
2022-12-28T20:04:13.377Z,127.74
2022-12-28T20:07:21.152Z,135.68
2022-12-28T20:10:29.135Z,133.59
2022-12-28T20:13:39.073Z,133.49
2022-12-28T20:16:46.589Z,121.25
2022-12-28T20:19:56.278Z,118.47
2022-12-28T20:23:02.873Z,117.86
2022-12-28T20:26:10.227Z,134.80
2022-12-28T20:29:16.946Z,139.52
2022-12-28T20:32:24.022Z,131.13
2022-12-28T20:35:32.826Z,98.25
2022-12-28T20:38:40.046Z,104.60
2022-12-28T20:41:58.542Z,97.59
2022-12-28T20:45:05.631Z,98.72
2022-12-28T20:48:11.718Z,86.45
2022-12-28T20:51:22.135Z,90.09
2022-12-28T20:54:28.713Z,93.32
2022-12-28T20:57:35.670Z,87.25
2022-12-28T21:00:42.574Z,95.94
2022-12-28T21:03:49.851Z,106.76
2022-12-28T21:06:58.787Z,109.64
2022-12-28T21:10:07.444Z,96.04
2022-12-28T21:13:13.743Z,98.27
2022-12-28T21:16:22.079Z,91.69
2022-12-28T21:19:28.265Z,88.47
2022-12-28T21:22:37.697Z,88.01
2022-12-28T21:25:43.891Z,84.91
2022-12-28T21:28:51.005Z,87.93
2022-12-28T21:31:58.036Z,81.52
2022-12-28T21:35:05.041Z,99.43
2022-12-28T21:38:13.930Z,101.54
2022-12-28T21:41:44.447Z,96.66
2022-12-28T21:44:50.508Z,79.05
2022-12-28T21:47:57.474Z,74.01
2022-12-28T21:51:29.805Z,72.29
2022-12-28T21:54:40.082Z,72.43
2022-12-28T21:57:46.133Z,72.86
2022-12-28T22:01:05.463Z,75.65
2022-12-28T22:04:28.264Z,95.81
2022-12-28T22:07:38.114Z,80.76
2022-12-28T22:10:59.059Z,67.70
2022-12-28T22:14:06.484Z,69.72
2022-12-28T22:17:14.642Z,68.96
2022-12-28T22:20:21.857Z,70.39
2022-12-28T22:23:34.241Z,72.85
2022-12-28T22:26:44.336Z,73.31
2022-12-28T22:29:50.392Z,71.61
2022-12-28T22:32:57.941Z,78.90
2022-12-28T22:36:12.985Z,103.11
2022-12-28T22:39:19.978Z,96.99
2022-12-28T22:42:28.807Z,101.23
2022-12-28T22:45:35.825Z,91.67
2022-12-28T22:48:42.454Z,88.84
2022-12-28T22:51:51.023Z,99.55
2022-12-28T22:54:57.105Z,100.54
2022-12-28T22:58:06.550Z,84.89
2022-12-28T23:01:16.297Z,87.50
2022-12-28T23:04:23.878Z,92.46
2022-12-28T23:07:29.951Z,104.50
2022-12-28T23:10:36.830Z,118.71
2022-12-28T23:13:45.602Z,130.15
2022-12-28T23:16:50.763Z,130.50
2022-12-28T23:20:09.181Z,138.32
2022-12-28T23:23:28.326Z,157.24
2022-12-28T23:26:46.775Z,193.21
2022-12-28T23:29:56.221Z,154.19
2022-12-28T23:33:02.431Z,144.79
2022-12-28T23:36:10.699Z,110.47
2022-12-28T23:39:16.752Z,99.63
2022-12-28T23:42:23.762Z,99.27
2022-12-28T23:45:32.397Z,113.21
2022-12-28T23:48:39.261Z,124.37
2022-12-28T23:51:47.883Z,126.37
2022-12-28T23:54:54.734Z,134.43
2022-12-28T23:58:00.804Z,128.35
